Time;durP1;ratioP1;P1;durP2;ratioP2;P2;SDS_P1;SDS_P2;PMS_P1;PMS_P2;Temp;Humidity;BMP_temperature;BMP_pressure;BME280_temperature;BME280_humidity;BME280_pressure;Samples;Min_cycle;Max_cycle;Signal;HPM_P1;HPM_P2
2023/04/04 00:01:59;;;;;;;11.70;2.60;;;;;;;;;;105615;1297;24271;-84
2023/04/04 00:04:49;;;;;;;9.60;2.30;;;;;;;;;;105340;1297;25393;-81
2023/04/04 00:07:58;;;;;;;;;;;;;;;;;;;;;
2023/04/04 00:10:51;;;;;;;8.80;2.30;;;;;;;;;;105560;1297;22540;-86
2023/04/04 00:13:18;;;;;;;8.60;2.50;;;;;;;;;;105351;1297;22542;-81
2023/04/04 00:16:03;;;;;;;10.60;2.20;;;;;;;;;;105706;1270;22551;-85
2023/04/04 00:19:17;;;;;;;;;;;;;;;;;;;;;
2023/04/04 00:22:17;;;;;;;10.60;2.60;;;;;;;;;;105830;1292;22817;-82
2023/04/04 00:25:34;;;;;;;11.10;3.40;;;;;;;;;;105797;1292;25289;-85
2023/04/04 00:29:26;;;;;;;10.50;2.80;;;;;;;;;;106451;1265;22529;-81
2023/04/04 00:31:43;;;;;;;8.80;2.30;;;;;;;;;;106400;1284;26019;-86
2023/04/04 00:34:15;;;;;;;9.30;2.60;;;;;;;;;;106956;1277;24276;-83
2023/04/04 00:37:16;;;;;;;;;;;;;;;;;;;;;
2023/04/04 00:40:05;;;;;;;;;;;;;;;;;;;;;
2023/04/04 00:43:02;;;;;;;7.40;2.00;;;;;;;;;;106908;1277;22639;-84
2023/04/04 00:46:17;;;;;;;;;;;;;;;;;;;;;
2023/04/04 00:49:33;;;;;;;;;;;;;;;;;;;;;
2023/04/04 00:52:42;;;;;;;;;;;;;;;;;;;;;
2023/04/04 00:55:39;;;;;;;8.50;2.00;;;;;;;;;;106786;1280;24228;-83
2023/04/04 00:58:51;;;;;;;;;;;;;;;;;;;;;
2023/04/04 01:01:39;;;;;;;7.20;1.70;;;;;;;;;;106101;1288;22656;-82
2023/04/04 01:04:28;;;;;;;;;;;;;;;;;;;;;
2023/04/04 01:07:45;;;;;;;7.50;1.50;;;;;;;;;;106113;1287;24246;-82
2023/04/04 01:10:34;;;;;;;;;;;;;;;;;;;;;
2023/04/04 01:13:42;;;;;;;;;;;;;;;;;;;;;
2023/04/04 01:16:30;;;;;;;24.10;6.40;;;;;;;;;;106100;1288;22606;-83
2023/04/04 01:20:10;;;;;;;23.50;5.40;;;;;;;;;;106285;1270;24379;-83
2023/04/04 01:22:45;;;;;;;10.10;2.50;;;;;;;;;;106266;1287;24659;-82
2023/04/04 01:25:51;;;;;;;;;;;;;;;;;;;;;
2023/04/04 01:28:39;;;;;;;8.30;2.60;;;;;;;;;;106526;1259;22519;-82
2023/04/04 01:31:32;;;;;;;7.60;1.50;;;;;;;;;;106538;1280;25277;-83
2023/04/04 01:35:00;;;;;;;;;;;;;;;;;;;;;
2023/04/04 01:37:56;;;;;;;6.90;1.90;;;;;;;;;;106565;1282;22574;-85
2023/04/04 01:41:06;;;;;;;6.80;1.70;;;;;;;;;;107246;1257;24256;-84
2023/04/04 01:43:50;;;;;;;8.30;1.80;;;;;;;;;;107154;1274;24265;-82
2023/04/04 01:46:52;;;;;;;;;;;;;;;;;;;;;
2023/04/04 01:50:02;;;;;;;;;;;;;;;;;;;;;
2023/04/04 01:52:58;;;;;;;7.70;1.80;;;;;;;;;;107211;1274;24980;-82
2023/04/04 01:55:45;;;;;;;8.30;2.20;;;;;;;;;;107173;1275;24324;-82
2023/04/04 01:58:34;;;;;;;6.30;2.10;;;;;;;;;;107088;1275;24189;-83
2023/04/04 02:01:09;;;;;;;8.50;1.80;;;;;;;;;;106977;1259;22515;-81
2023/04/04 02:03:58;;;;;;;8.20;1.90;;;;;;;;;;107121;1275;23368;-82
2023/04/04 02:06:46;;;;;;;6.10;1.50;;;;;;;;;;107002;1275;25323;-85
2023/04/04 02:09:46;;;;;;;;;;;;;;;;;;;;;
2023/04/04 02:12:52;;;;;;;6.70;1.70;;;;;;;;;;107125;1275;22529;-85
2023/04/04 02:15:45;;;;;;;;;;;;;;;;;;;;;
2023/04/04 02:18:35;;;;;;;7.10;2.00;;;;;;;;;;107120;1275;22510;-83
2023/04/04 02:21:27;;;;;;;5.00;1.60;;;;;;;;;;107075;1256;25028;-85
2023/04/04 02:23:58;;;;;;;6.20;1.60;;;;;;;;;;106955;1275;22621;-84
2023/04/04 02:26:33;;;;;;;5.90;1.50;;;;;;;;;;106919;1275;22520;-85
2023/04/04 02:29:30;;;;;;;8.00;2.00;;;;;;;;;;106888;1265;23459;-84
2023/04/04 02:32:38;;;;;;;11.20;2.10;;;;;;;;;;107234;1256;22750;-87
2023/04/04 02:42:07;;;;;;;8.70;2.20;;;;;;;;;;106595;1279;25347;-82
2023/04/04 02:44:39;;;;;;;7.20;2.30;;;;;;;;;;106707;1279;23739;-84
2023/04/04 02:47:21;;;;;;;6.70;1.80;;;;;;;;;;106665;1279;24195;-85
2023/04/04 02:50:52;;;;;;;9.00;2.10;;;;;;;;;;106771;1279;24174;-84
2023/04/04 02:54:09;;;;;;;6.80;1.90;;;;;;;;;;106458;1284;25247;-82
2023/04/04 02:56:48;;;;;;;6.80;1.40;;;;;;;;;;106482;1284;24336;-82
2023/04/04 02:59:21;;;;;;;7.30;1.80;;;;;;;;;;106462;1284;26568;-86
2023/04/04 03:02:03;;;;;;;9.10;1.70;;;;;;;;;;106513;1260;25325;-83
2023/04/04 03:05:04;;;;;;;8.10;2.30;;;;;;;;;;106470;1277;22517;-83
2023/04/04 03:07:42;;;;;;;;;;;;;;;;;;;;;
2023/04/04 03:10:42;;;;;;;;;;;;;;;;;;;;;
2023/04/04 03:13:58;;;;;;;8.60;1.70;;;;;;;;;;106468;1283;22529;-85
2023/04/04 03:16:58;;;;;;;7.30;2.00;;;;;;;;;;106231;1286;25230;-83
2023/04/04 03:19:33;;;;;;;7.40;2.30;;;;;;;;;;106210;1283;22551;-86
2023/04/04 03:23:12;;;;;;;;;;;;;;;;;;;;;
2023/04/04 03:26:03;;;;;;;7.40;2.70;;;;;;;;;;106020;1290;25490;-84
2023/04/04 03:29:16;;;;;;;;;;;;;;;;;;;;;
2023/04/04 03:32:06;;;;;;;9.00;3.50;;;;;;;;;;106568;1286;25282;-84
2023/04/04 03:39:06;;;;;;;6.30;1.80;;;;;;;;;;105979;1291;22625;-86
2023/04/04 03:41:46;;;;;;;9.00;3.30;;;;;;;;;;105864;1291;22585;-82
2023/04/04 03:44:37;;;;;;;10.30;3.00;;;;;;;;;;105921;1291;22596;-88
2023/04/04 03:48:29;;;;;;;8.50;2.10;;;;;;;;;;105982;1291;25834;-86
2023/04/04 03:51:11;;;;;;;7.70;1.90;;;;;;;;;;105942;1291;23016;-85
2023/04/04 03:54:44;;;;;;;9.00;2.60;;;;;;;;;;105945;1281;24285;-89
2023/04/04 04:01:02;;;;;;;8.60;2.50;;;;;;;;;;103753;1297;546041;-83
2023/04/04 04:03:34;;;;;;;9.80;2.80;;;;;;;;;;106048;1290;24222;-82
2023/04/04 04:06:20;;;;;;;11.80;3.10;;;;;;;;;;105990;1290;22809;-87
2023/04/04 04:08:48;;;;;;;10.80;3.10;;;;;;;;;;106102;1290;24210;-83
2023/04/04 04:11:21;;;;;;;11.30;2.90;;;;;;;;;;105985;1287;22664;-86
2023/04/04 04:13:59;;;;;;;8.50;2.60;;;;;;;;;;102637;1279;5323423;-83
2023/04/04 04:16:33;;;;;;;11.60;2.70;;;;;;;;;;106845;1279;22533;-83
2023/04/04 04:19:05;;;;;;;8.60;2.60;;;;;;;;;;106610;1279;25135;-86
2023/04/04 04:22:01;;;;;;;11.70;3.10;;;;;;;;;;106792;1260;22524;-86
2023/04/04 04:24:32;;;;;;;10.40;2.80;;;;;;;;;;106875;1279;25332;-82
2023/04/04 04:27:41;;;;;;;8.90;2.70;;;;;;;;;;106817;1277;23912;-83
2023/04/04 04:30:14;;;;;;;8.50;2.40;;;;;;;;;;106769;1279;22608;-83
2023/04/04 04:32:50;;;;;;;10.90;3.00;;;;;;;;;;106766;1279;22545;-84
2023/04/04 04:35:21;;;;;;;9.10;2.60;;;;;;;;;;106729;1279;23891;-87
2023/04/04 04:37:53;;;;;;;10.20;2.60;;;;;;;;;;106719;1279;22526;-82
2023/04/04 04:40:27;;;;;;;10.20;2.90;;;;;;;;;;106765;1261;22533;-85
2023/04/04 04:43:19;;;;;;;11.60;3.40;;;;;;;;;;106766;1276;22671;-82
2023/04/04 04:45:46;;;;;;;13.10;3.40;;;;;;;;;;106941;1279;22629;-82
2023/04/04 04:48:16;;;;;;;9.10;3.00;;;;;;;;;;106875;1279;23679;-85
2023/04/04 04:51:19;;;;;;;;;;;;;;;;;;;;;
2023/04/04 04:54:01;;;;;;;15.00;3.20;;;;;;;;;;106810;1279;25356;-82
2023/04/04 04:56:28;;;;;;;13.90;3.30;;;;;;;;;;106809;1279;23147;-83
2023/04/04 04:59:13;;;;;;;13.20;3.00;;;;;;;;;;106595;1279;24229;-85
2023/04/04 05:01:45;;;;;;;9.70;3.40;;;;;;;;;;106830;1270;24193;-83
2023/04/04 05:04:21;;;;;;;10.20;3.30;;;;;;;;;;106796;1279;24199;-84
2023/04/04 05:07:08;;;;;;;13.00;3.50;;;;;;;;;;106865;1276;25318;-81
2023/04/04 05:10:05;;;;;;;17.00;3.60;;;;;;;;;;106836;1260;25294;-82
2023/04/04 05:13:12;;;;;;;16.90;3.50;;;;;;;;;;106806;1260;25541;-83
2023/04/04 05:15:56;;;;;;;11.90;2.90;;;;;;;;;;106709;1279;25484;-81
2023/04/04 05:18:35;;;;;;;9.90;3.40;;;;;;;;;;106825;1276;25241;-83
2023/04/04 05:21:23;;;;;;;14.30;4.50;;;;;;;;;;106805;1279;23907;-83
2023/04/04 05:24:22;;;;;;;;;;;;;;;;;;;;;
2023/04/04 05:27:25;;;;;;;11.60;3.00;;;;;;;;;;107026;1272;25281;-83
2023/04/04 05:30:23;;;;;;;11.10;3.20;;;;;;;;;;106463;1280;22623;-84
2023/04/04 05:33:15;;;;;;;9.80;3.00;;;;;;;;;;106556;1260;22524;-82
2023/04/04 05:36:18;;;;;;;;;;;;;;;;;;;;;
2023/04/04 05:39:00;;;;;;;11.00;2.50;;;;;;;;;;106829;1280;24256;-83
2023/04/04 05:41:39;;;;;;;10.10;2.90;;;;;;;;;;106708;1279;25481;-84
2023/04/04 05:45:11;;;;;;;13.00;3.20;;;;;;;;;;106842;1260;22651;-82
2023/04/04 05:48:00;;;;;;;;;;;;;;;;;;;;;
2023/04/04 05:50:43;;;;;;;14.50;3.70;;;;;;;;;;106783;1280;25230;-81
2023/04/04 05:54:10;;;;;;;13.90;3.00;;;;;;;;;;106441;1264;21817;-82
2023/04/04 05:56:47;;;;;;;12.00;3.20;;;;;;;;;;106446;1284;25452;-87
2023/04/04 05:59:31;;;;;;;12.30;3.60;;;;;;;;;;106377;1285;25364;-83
2023/04/04 06:02:28;;;;;;;13.10;3.60;;;;;;;;;;106315;1284;22572;-82
2023/04/04 06:05:50;;;;;;;;;;;;;;;;;;;;;
2023/04/04 06:08:37;;;;;;;13.70;3.50;;;;;;;;;;106019;1271;25450;-83
2023/04/04 06:11:21;;;;;;;12.50;3.20;;;;;;;;;;105777;1291;22543;-81
2023/04/04 06:14:21;;;;;;;13.80;3.40;;;;;;;;;;105864;1274;24280;-85
2023/04/04 06:16:56;;;;;;;13.60;3.80;;;;;;;;;;105912;1291;26677;-87
2023/04/04 06:19:55;;;;;;;10.00;2.30;;;;;;;;;;105782;1290;25424;-82
2023/04/04 06:22:25;;;;;;;10.70;3.20;;;;;;;;;;105952;1291;24312;-84
2023/04/04 06:25:09;;;;;;;9.50;3.10;;;;;;;;;;105843;1274;22585;-82
2023/04/04 06:27:53;;;;;;;7.80;2.80;;;;;;;;;;105823;1291;24334;-83
2023/04/04 06:30:53;;;;;;;;;;;;;;;;;;;;;
2023/04/04 06:33:44;;;;;;;11.30;3.10;;;;;;;;;;106110;1263;22546;-82
2023/04/04 06:36:24;;;;;;;13.70;4.50;;;;;;;;;;106095;1285;24212;-86
2023/04/04 06:39:14;;;;;;;14.30;4.40;;;;;;;;;;106422;1285;25284;-83
2023/04/04 06:42:05;;;;;;;;;;;;;;;;;;;;;
2023/04/04 06:45:40;;;;;;;10.40;3.20;;;;;;;;;;106158;1269;25380;-85
2023/04/04 06:47:56;;;;;;;51.60;20.40;;;;;;;;;;106449;1284;24235;-85
2023/04/04 06:50:37;;;;;;;131.00;50.80;;;;;;;;;;106398;1284;22517;-83
2023/04/04 06:53:42;;;;;;;;;;;;;;;;;;;;;
2023/04/04 06:56:29;;;;;;;18.80;3.90;;;;;;;;;;106460;1264;22534;-85
2023/04/04 06:59:04;;;;;;;9.90;2.80;;;;;;;;;;106404;1284;22582;-83
2023/04/04 07:01:40;;;;;;;10.30;2.80;;;;;;;;;;106437;1283;24245;-82
2023/04/04 07:04:46;;;;;;;9.50;3.10;;;;;;;;;;106394;1284;22490;-81
2023/04/04 07:07:25;;;;;;;15.20;6.10;;;;;;;;;;106278;1267;25249;-84
2023/04/04 07:10:06;;;;;;;13.20;3.80;;;;;;;;;;106435;1284;22572;-85
2023/04/04 07:20:53;;;;;;;138.60;60.90;;;;;;;;;;103875;1295;547957;-85
2023/04/04 07:23:21;;;;;;;17.20;7.40;;;;;;;;;;106377;1287;24267;-87
2023/04/04 07:25:50;;;;;;;10.10;3.10;;;;;;;;;;106125;1288;22499;-88
2023/04/04 07:28:22;;;;;;;11.40;2.70;;;;;;;;;;106370;1287;22539;-85
2023/04/04 07:31:00;;;;;;;14.60;4.50;;;;;;;;;;106055;1272;24346;-83
2023/04/04 07:33:37;;;;;;;8.70;3.70;;;;;;;;;;104526;1285;2519279;-84
2023/04/04 07:36:05;;;;;;;9.50;2.80;;;;;;;;;;106873;1278;22772;-85
2023/04/04 07:38:34;;;;;;;12.20;2.90;;;;;;;;;;106865;1267;22539;-83
2023/04/04 07:41:26;;;;;;;9.90;2.40;;;;;;;;;;107090;1269;24194;-88
2023/04/04 07:43:57;;;;;;;14.10;5.50;;;;;;;;;;107246;1274;22817;-85
2023/04/04 07:46:49;;;;;;;10.30;4.30;;;;;;;;;;107043;1274;25332;-86
2023/04/04 07:49:21;;;;;;;10.50;3.00;;;;;;;;;;107253;1251;24179;-81
2023/04/04 07:52:01;;;;;;;9.30;3.20;;;;;;;;;;107116;1274;24663;-85
2023/04/04 07:54:29;;;;;;;12.00;3.80;;;;;;;;;;107000;1274;22526;-87
2023/04/04 07:57:08;;;;;;;;;;;;;;;;;;;;;
2023/04/04 08:00:04;;;;;;;8.60;2.80;;;;;;;;;;107182;1274;22517;-85
2023/04/04 08:02:42;;;;;;;12.60;3.80;;;;;;;;;;107253;1274;22652;-86
2023/04/04 08:05:12;;;;;;;10.40;3.60;;;;;;;;;;107170;1274;22554;-81
2023/04/04 08:07:48;;;;;;;8.00;1.90;;;;;;;;;;107177;1274;24246;-86
2023/04/04 08:10:32;;;;;;;8.50;2.40;;;;;;;;;;107081;1257;22527;-83
2023/04/04 08:13:01;;;;;;;9.40;2.60;;;;;;;;;;107157;1274;25281;-84
2023/04/04 08:15:29;;;;;;;7.80;2.40;;;;;;;;;;107123;1274;24199;-86
2023/04/04 08:17:57;;;;;;;9.00;2.90;;;;;;;;;;107197;1274;25437;-83
2023/04/04 08:20:27;;;;;;;6.50;1.90;;;;;;;;;;107237;1255;25294;-84
2023/04/04 08:23:10;;;;;;;6.30;2.20;;;;;;;;;;106978;1274;25462;-85
2023/04/04 08:25:39;;;;;;;18.10;7.80;;;;;;;;;;107228;1274;28008;-86
2023/04/04 08:28:08;;;;;;;9.30;3.30;;;;;;;;;;107055;1274;25368;-85
2023/04/04 08:30:57;;;;;;;11.20;3.60;;;;;;;;;;107273;1257;22631;-85
2023/04/04 08:33:33;;;;;;;14.70;5.90;;;;;;;;;;107029;1274;22549;-83
2023/04/04 08:36:20;;;;;;;9.80;2.50;;;;;;;;;;107038;1274;25459;-89
2023/04/04 08:38:46;;;;;;;6.60;2.40;;;;;;;;;;107226;1269;26516;-86
2023/04/04 08:41:14;;;;;;;8.40;2.90;;;;;;;;;;107037;1261;22530;-84
2023/04/04 08:43:56;;;;;;;;;;;;;;;;;;;;;
2023/04/04 08:46:34;;;;;;;15.70;5.30;;;;;;;;;;106984;1274;24369;-82
2023/04/04 08:49:16;;;;;;;21.00;7.90;;;;;;;;;;106982;1274;25450;-84
2023/04/04 08:51:48;;;;;;;16.30;5.50;;;;;;;;;;107393;1274;24082;-81
2023/04/04 08:54:18;;;;;;;37.60;15.30;;;;;;;;;;107053;1274;25426;-82
2023/04/04 08:57:01;;;;;;;19.80;7.80;;;;;;;;;;107033;1274;25017;-85
2023/04/04 08:59:30;;;;;;;22.30;8.80;;;;;;;;;;106996;1263;23733;-81
2023/04/04 09:02:01;;;;;;;13.00;3.40;;;;;;;;;;106856;1259;25227;-86
2023/04/04 09:04:33;;;;;;;12.00;5.20;;;;;;;;;;107018;1274;25402;-82
2023/04/04 09:07:11;;;;;;;8.60;2.30;;;;;;;;;;107244;1274;25379;-86
2023/04/04 09:09:38;;;;;;;12.10;3.70;;;;;;;;;;106994;1274;22484;-83
2023/04/04 09:12:11;;;;;;;6.10;1.40;;;;;;;;;;107310;1274;24250;-81
2023/04/04 09:14:50;;;;;;;12.40;3.20;;;;;;;;;;107214;1274;22572;-86
2023/04/04 09:17:29;;;;;;;16.00;6.90;;;;;;;;;;107002;1274;24337;-80
2023/04/04 09:20:17;;;;;;;45.00;20.20;;;;;;;;;;107174;1274;22544;-83
2023/04/04 09:22:57;;;;;;;21.10;9.20;;;;;;;;;;107226;1257;24213;-84
2023/04/04 09:25:29;;;;;;;14.70;6.90;;;;;;;;;;107196;1274;22534;-86
2023/04/04 09:27:58;;;;;;;15.30;7.60;;;;;;;;;;107059;1274;25435;-81
2023/04/04 09:30:29;;;;;;;7.60;2.70;;;;;;;;;;107025;1274;25210;-84
2023/04/04 09:33:16;;;;;;;7.10;1.80;;;;;;;;;;107234;1256;24166;-85
2023/04/04 09:36:05;;;;;;;8.40;2.90;;;;;;;;;;107026;1274;23151;-86
2023/04/04 09:38:52;;;;;;;11.80;6.70;;;;;;;;;;107186;1274;24222;-84
2023/04/04 09:41:21;;;;;;;9.10;4.30;;;;;;;;;;107000;1274;22664;-82
2023/04/04 09:44:03;;;;;;;10.20;2.70;;;;;;;;;;107053;1274;25360;-82
2023/04/04 09:47:01;;;;;;;6.40;1.70;;;;;;;;;;107215;1274;24222;-87
2023/04/04 09:49:31;;;;;;;7.20;2.80;;;;;;;;;;107043;1274;25265;-86
2023/04/04 09:52:00;;;;;;;5.70;1.50;;;;;;;;;;107018;1269;22539;-87
2023/04/04 09:54:29;;;;;;;9.50;2.10;;;;;;;;;;107151;1274;22639;-83
2023/04/04 09:56:58;;;;;;;5.80;1.50;;;;;;;;;;106990;1275;25327;-86
2023/04/04 09:59:30;;;;;;;10.00;3.20;;;;;;;;;;107245;1274;22530;-85
2023/04/04 10:02:17;;;;;;;6.90;2.00;;;;;;;;;;107130;1251;22768;-83
2023/04/04 10:05:03;;;;;;;8.20;1.90;;;;;;;;;;107190;1274;22527;-84
2023/04/04 10:07:53;;;;;;;13.20;5.40;;;;;;;;;;107260;1274;24186;-83
2023/04/04 10:10:40;;;;;;;;;;;;;;;;;;;;;
2023/04/04 10:13:27;;;;;;;16.60;7.60;;;;;;;;;;107027;1257;25051;-82
2023/04/04 10:15:57;;;;;;;10.00;1.50;;;;;;;;;;107060;1274;22549;-81
2023/04/04 10:18:27;;;;;;;8.10;1.80;;;;;;;;;;106949;1274;25333;-82
2023/04/04 10:21:16;;;;;;;15.90;5.40;;;;;;;;;;107018;1275;22644;-82
2023/04/04 10:24:02;;;;;;;17.50;5.90;;;;;;;;;;107018;1274;25313;-81
2023/04/04 10:26:39;;;;;;;49.50;17.30;;;;;;;;;;107236;1274;24174;-85
2023/04/04 10:29:13;;;;;;;189.50;56.70;;;;;;;;;;106974;1274;23350;-83
2023/04/04 10:31:52;;;;;;;123.30;37.80;;;;;;;;;;107255;1274;22530;-81
2023/04/04 10:34:44;;;;;;;33.20;10.10;;;;;;;;;;107142;1256;22529;-85
2023/04/04 10:37:14;;;;;;;17.80;6.90;;;;;;;;;;107173;1274;24195;-84
2023/04/04 10:39:52;;;;;;;10.60;3.10;;;;;;;;;;107082;1275;22588;-85
2023/04/04 10:42:22;;;;;;;10.80;3.30;;;;;;;;;;107142;1274;23296;-81
2023/04/04 10:44:51;;;;;;;15.30;3.90;;;;;;;;;;107220;1257;22527;-86
2023/04/04 10:47:20;;;;;;;16.30;7.70;;;;;;;;;;107023;1274;22633;-81
2023/04/04 10:49:57;;;;;;;21.30;12.10;;;;;;;;;;107280;1274;25529;-84
2023/04/04 10:52:26;;;;;;;10.10;3.80;;;;;;;;;;106977;1274;22989;-84
2023/04/04 10:55:04;;;;;;;15.50;4.30;;;;;;;;;;106989;1258;25346;-82
2023/04/04 10:58:02;;;;;;;7.80;2.40;;;;;;;;;;106916;1275;23022;-83
2023/04/04 11:00:42;;;;;;;10.00;2.60;;;;;;;;;;106945;1275;22530;-83
2023/04/04 11:03:21;;;;;;;9.80;2.30;;;;;;;;;;107032;1275;22548;-81
2023/04/04 11:06:00;;;;;;;64.20;31.70;;;;;;;;;;107232;1274;22673;-84
2023/04/04 11:08:39;;;;;;;58.10;28.30;;;;;;;;;;107008;1275;24495;-86
2023/04/04 11:11:28;;;;;;;36.10;17.50;;;;;;;;;;107045;1275;24644;-80
2023/04/04 11:14:14;;;;;;;96.40;51.10;;;;;;;;;;107054;1275;22541;-81
2023/04/04 11:16:45;;;;;;;39.00;19.80;;;;;;;;;;107134;1275;24365;-85
2023/04/04 11:20:07;;;;;;;43.80;32.90;;;;;;;;;;106994;1275;22560;-81
2023/04/04 11:22:31;;;;;;;21.20;8.30;;;;;;;;;;107080;1274;22483;-87
2023/04/04 11:25:30;;;;;;;;;;;;;;;;;;;;;
2023/04/04 11:28:41;;;;;;;36.20;14.50;;;;;;;;;;107207;1274;25360;-82
2023/04/04 11:31:41;;;;;;;31.90;13.80;;;;;;;;;;107032;1274;22740;-83
2023/04/04 11:34:57;;;;;;;18.90;6.50;;;;;;;;;;107090;1275;22581;-85
2023/04/04 11:37:45;;;;;;;22.30;3.40;;;;;;;;;;106979;1275;22543;-80
2023/04/04 11:41:09;;;;;;;14.10;6.90;;;;;;;;;;107005;1274;22541;-82
2023/04/04 11:44:14;;;;;;;16.30;3.30;;;;;;;;;;107080;1274;23004;-85
2023/04/04 11:46:40;;;;;;;12.20;5.60;;;;;;;;;;107143;1257;24235;-87
2023/04/04 11:49:23;;;;;;;11.40;4.80;;;;;;;;;;107128;1275;22530;-83
2023/04/04 11:52:16;;;;;;;;;;;;;;;;;;;;;
2023/04/04 11:55:12;;;;;;;12.60;5.70;;;;;;;;;;107074;1262;22530;-83
2023/04/04 11:57:42;;;;;;;13.50;4.90;;;;;;;;;;106922;1276;22768;-85
2023/04/04 12:00:47;;;;;;;8.30;3.00;;;;;;;;;;106925;1276;25169;-86
2023/04/04 12:03:31;;;;;;;16.10;6.30;;;;;;;;;;106803;1276;22533;-86
2023/04/04 12:06:05;;;;;;;16.60;6.70;;;;;;;;;;107023;1256;25471;-81
2023/04/04 12:08:32;;;;;;;10.70;4.20;;;;;;;;;;107028;1272;25399;-82
2023/04/04 12:11:08;;;;;;;8.90;4.00;;;;;;;;;;106952;1275;25274;-81
2023/04/04 12:13:40;;;;;;;6.10;1.90;;;;;;;;;;106999;1275;24245;-84
2023/04/04 12:16:20;;;;;;;14.90;6.50;;;;;;;;;;107006;1268;22529;-81
2023/04/04 12:18:49;;;;;;;15.50;6.10;;;;;;;;;;106912;1271;25239;-81
2023/04/04 12:21:19;;;;;;;10.30;4.00;;;;;;;;;;106879;1272;25335;-82
2023/04/04 12:23:50;;;;;;;9.20;3.50;;;;;;;;;;106851;1274;25231;-82
2023/04/04 12:26:40;;;;;;;9.70;3.30;;;;;;;;;;106938;1259;24203;-83
2023/04/04 12:29:36;;;;;;;;;;;;;;;;;;;;;
2023/04/04 12:32:22;;;;;;;9.60;3.60;;;;;;;;;;106971;1267;23126;-82
2023/04/04 12:34:48;;;;;;;11.60;3.70;;;;;;;;;;107162;1275;25426;-82
2023/04/04 12:37:17;;;;;;;8.60;3.00;;;;;;;;;;106933;1263;22544;-82
2023/04/04 12:39:51;;;;;;;11.40;4.10;;;;;;;;;;106909;1268;22620;-80
2023/04/04 12:42:28;;;;;;;8.30;1.90;;;;;;;;;;106999;1268;22541;-82
2023/04/04 12:45:00;;;;;;;8.40;1.90;;;;;;;;;;107070;1268;22490;-81
2023/04/04 12:47:38;;;;;;;7.80;2.20;;;;;;;;;;107423;1267;23325;-79
2023/04/04 12:50:07;;;;;;;23.60;8.70;;;;;;;;;;107039;1268;26653;-80
2023/04/04 12:52:41;;;;;;;11.60;3.80;;;;;;;;;;107020;1274;22534;-83
2023/04/04 12:55:08;;;;;;;11.80;3.80;;;;;;;;;;107254;1272;25230;-80
2023/04/04 12:57:38;;;;;;;6.90;2.90;;;;;;;;;;107106;1258;22533;-82
2023/04/04 13:00:17;;;;;;;7.30;2.30;;;;;;;;;;107081;1268;25894;-81
2023/04/04 13:02:53;;;;;;;7.30;2.30;;;;;;;;;;107097;1268;22687;-82
2023/04/04 13:05:28;;;;;;;8.50;2.40;;;;;;;;;;107080;1252;24251;-81
2023/04/04 13:08:14;;;;;;;8.60;3.30;;;;;;;;;;107111;1269;22527;-83
2023/04/04 13:11:10;;;;;;;9.10;2.40;;;;;;;;;;107179;1273;24688;-78
2023/04/04 13:13:40;;;;;;;9.70;3.30;;;;;;;;;;107015;1266;23254;-81
2023/04/04 13:16:26;;;;;;;11.90;3.50;;;;;;;;;;107010;1276;25673;-78
2023/04/04 13:18:54;;;;;;;8.70;3.30;;;;;;;;;;106989;1260;22538;-79
2023/04/04 13:21:21;;;;;;;8.10;2.70;;;;;;;;;;110321;1273;22124;-79
2023/04/04 13:23:47;;;;;;;7.30;2.20;;;;;;;;;;110261;1277;22338;-78
2023/04/04 13:26:13;;;;;;;20.10;6.40;;;;;;;;;;110266;1277;22144;-77
2023/04/04 13:28:40;;;;;;;10.90;3.30;;;;;;;;;;110363;1260;22859;-79
2023/04/04 13:31:07;;;;;;;13.60;3.90;;;;;;;;;;110449;1277;22121;-80
2023/04/04 13:33:36;;;;;;;45.20;15.00;;;;;;;;;;110155;1277;22063;-78
2023/04/04 13:36:02;;;;;;;20.40;6.30;;;;;;;;;;110301;1277;22336;-81
2023/04/04 13:38:29;;;;;;;11.70;4.50;;;;;;;;;;110335;1260;22187;-78
2023/04/04 13:40:58;;;;;;;11.70;4.80;;;;;;;;;;110271;1277;22153;-79
2023/04/04 13:43:24;;;;;;;14.20;6.80;;;;;;;;;;110331;1277;22138;-79
2023/04/04 13:45:52;;;;;;;8.00;2.90;;;;;;;;;;110270;1277;22130;-79
2023/04/04 13:48:22;;;;;;;9.40;3.80;;;;;;;;;;110427;1257;22184;-78
2023/04/04 13:50:51;;;;;;;8.90;3.40;;;;;;;;;;110304;1277;22836;-78
2023/04/04 13:53:17;;;;;;;8.90;2.60;;;;;;;;;;110456;1277;22335;-78
2023/04/04 13:55:46;;;;;;;15.20;6.30;;;;;;;;;;110291;1277;22141;-80
2023/04/04 13:58:12;;;;;;;9.50;3.70;;;;;;;;;;110342;1260;22432;-80
2023/04/04 14:00:39;;;;;;;10.60;5.00;;;;;;;;;;110283;1276;22099;-78
2023/04/04 14:03:05;;;;;;;10.70;5.60;;;;;;;;;;110292;1276;22125;-79
2023/04/04 14:05:34;;;;;;;18.60;9.60;;;;;;;;;;110307;1276;22179;-79
2023/04/04 14:08:00;;;;;;;12.00;4.10;;;;;;;;;;110382;1259;22330;-79
2023/04/04 14:10:26;;;;;;;11.00;4.40;;;;;;;;;;110306;1276;22290;-79
2023/04/04 14:12:53;;;;;;;14.30;7.50;;;;;;;;;;110606;1276;22134;-79
2023/04/04 14:15:19;;;;;;;16.10;4.10;;;;;;;;;;110308;1268;22288;-77
2023/04/04 14:18:07;;;;;;;10.70;2.50;;;;;;;;;;110244;1253;22107;-79
2023/04/04 14:20:34;;;;;;;9.20;3.30;;;;;;;;;;110196;1276;22155;-79
2023/04/04 14:23:02;;;;;;;19.60;8.70;;;;;;;;;;110251;1277;22113;-79
2023/04/04 14:25:29;;;;;;;12.20;5.00;;;;;;;;;;110260;1277;22902;-79
2023/04/04 14:27:55;;;;;;;17.60;8.60;;;;;;;;;;110129;1253;22363;-79
2023/04/04 14:30:22;;;;;;;12.70;4.80;;;;;;;;;;110141;1277;22135;-79
2023/04/04 14:32:51;;;;;;;12.70;4.40;;;;;;;;;;110305;1277;22109;-79
2023/04/04 14:35:17;;;;;;;15.60;5.90;;;;;;;;;;110302;1276;22123;-78
2023/04/04 14:37:43;;;;;;;55.80;25.20;;;;;;;;;;110278;1276;22200;-79
2023/04/04 14:40:09;;;;;;;22.10;8.60;;;;;;;;;;110777;1258;22624;-80
2023/04/04 14:42:35;;;;;;;11.80;5.30;;;;;;;;;;110117;1277;22263;-80
2023/04/04 14:45:06;;;;;;;19.40;7.30;;;;;;;;;;110414;1277;22937;-78
2023/04/04 14:47:33;;;;;;;12.40;5.10;;;;;;;;;;110252;1278;22117;-78
2023/04/04 14:49:59;;;;;;;10.40;4.70;;;;;;;;;;110678;1259;22208;-78
2023/04/04 14:52:28;;;;;;;10.30;4.10;;;;;;;;;;110284;1276;22929;-79
2023/04/04 14:54:57;;;;;;;11.30;5.10;;;;;;;;;;110304;1276;22264;-78
2023/04/04 14:57:23;;;;;;;17.80;7.80;;;;;;;;;;110295;1276;22251;-79
2023/04/04 14:59:50;;;;;;;11.10;3.70;;;;;;;;;;110124;1261;22169;-79
2023/04/04 15:02:17;;;;;;;10.00;4.80;;;;;;;;;;110128;1277;23245;-79
2023/04/04 15:04:43;;;;;;;16.00;7.40;;;;;;;;;;110258;1278;22061;-79
2023/04/04 15:07:09;;;;;;;13.20;6.80;;;;;;;;;;110355;1277;22139;-79
2023/04/04 15:09:35;;;;;;;8.10;2.50;;;;;;;;;;110348;1262;22199;-79
2023/04/04 15:12:01;;;;;;;21.10;8.80;;;;;;;;;;110487;1277;22240;-79
2023/04/04 15:14:27;;;;;;;29.60;11.00;;;;;;;;;;110315;1277;22949;-77
2023/04/04 15:16:53;;;;;;;67.10;27.40;;;;;;;;;;110328;1277;22133;-78
2023/04/04 15:19:19;;;;;;;84.80;32.10;;;;;;;;;;110326;1265;22911;-79
2023/04/04 15:21:46;;;;;;;65.80;29.20;;;;;;;;;;110276;1277;22116;-79
2023/04/04 15:24:12;;;;;;;43.50;22.00;;;;;;;;;;110132;1277;22430;-78
2023/04/04 15:26:41;;;;;;;36.60;18.30;;;;;;;;;;110115;1277;22136;-78
2023/04/04 15:29:07;;;;;;;21.40;7.10;;;;;;;;;;110361;1254;22381;-79
2023/04/04 15:31:34;;;;;;;8.30;2.30;;;;;;;;;;110135;1277;22133;-78
2023/04/04 15:34:00;;;;;;;9.80;3.80;;;;;;;;;;110281;1269;22215;-79
2023/04/04 15:36:27;;;;;;;28.90;12.00;;;;;;;;;;110422;1277;22763;-79
2023/04/04 15:38:54;;;;;;;32.90;13.60;;;;;;;;;;110300;1278;21968;-79
2023/04/04 15:41:20;;;;;;;23.40;9.90;;;;;;;;;;110257;1261;22900;-79
2023/04/04 15:43:46;;;;;;;20.10;7.90;;;;;;;;;;110236;1277;22641;-78
2023/04/04 15:46:12;;;;;;;23.20;10.60;;;;;;;;;;110088;1277;22296;-79
2023/04/04 15:48:38;;;;;;;18.60;7.40;;;;;;;;;;110125;1277;22172;-79
2023/04/04 15:51:04;;;;;;;28.20;9.30;;;;;;;;;;110521;1267;22259;-79
2023/04/04 15:53:31;;;;;;;20.10;5.90;;;;;;;;;;110428;1277;22875;-79
2023/04/04 15:55:57;;;;;;;28.70;11.40;;;;;;;;;;110300;1277;22170;-80
2023/04/04 15:58:24;;;;;;;30.10;12.20;;;;;;;;;;110297;1277;22836;-79
2023/04/04 16:00:51;;;;;;;27.60;7.60;;;;;;;;;;110298;1260;22191;-79
2023/04/04 16:03:20;;;;;;;13.00;4.50;;;;;;;;;;110110;1277;22146;-80
2023/04/04 16:05:46;;;;;;;12.20;4.70;;;;;;;;;;110362;1277;22610;-79
2023/04/04 16:08:13;;;;;;;35.10;10.20;;;;;;;;;;110090;1277;23092;-81
2023/04/04 16:10:39;;;;;;;52.00;16.30;;;;;;;;;;110236;1257;22318;-79
2023/04/04 16:13:05;;;;;;;24.00;7.40;;;;;;;;;;110435;1276;22460;-79
2023/04/04 16:15:31;;;;;;;12.90;3.70;;;;;;;;;;110414;1277;22127;-78
2023/04/04 16:17:58;;;;;;;10.80;2.60;;;;;;;;;;110291;1277;22980;-79
2023/04/04 16:20:25;;;;;;;10.30;2.70;;;;;;;;;;110429;1261;22141;-78
2023/04/04 16:22:51;;;;;;;8.10;2.10;;;;;;;;;;110204;1278;22194;-79
2023/04/04 16:25:17;;;;;;;9.40;2.50;;;;;;;;;;110185;1276;22145;-79
2023/04/04 16:27:43;;;;;;;8.60;2.20;;;;;;;;;;110291;1278;22174;-79
2023/04/04 16:30:10;;;;;;;9.60;2.60;;;;;;;;;;110167;1278;22355;-79
2023/04/04 16:32:36;;;;;;;8.90;2.40;;;;;;;;;;110432;1259;22285;-79
2023/04/04 16:35:03;;;;;;;21.80;9.50;;;;;;;;;;110215;1278;22143;-78
2023/04/04 16:37:29;;;;;;;27.00;13.90;;;;;;;;;;110219;1276;22118;-79
2023/04/04 16:39:55;;;;;;;39.60;18.90;;;;;;;;;;110384;1277;22233;-78
2023/04/04 16:42:24;;;;;;;14.10;4.50;;;;;;;;;;110598;1259;22966;-79